sensor_id;sensor_type;location;lat;lon;timestamp;P1;durP1;ratioP1;P2;durP2;ratioP2
73331;SDS011;61560;33.718;73.040;2023-02-07T00:00:22;17.33;;;5.95;;
73331;SDS011;61560;33.718;73.040;2023-02-07T00:02:50;14.68;;;6.07;;
73331;SDS011;61560;33.718;73.040;2023-02-07T00:05:19;12.15;;;6.03;;
73331;SDS011;61560;33.718;73.040;2023-02-07T00:07:47;17.23;;;6.45;;
73331;SDS011;61560;33.718;73.040;2023-02-07T00:10:14;16.13;;;5.97;;
73331;SDS011;61560;33.718;73.040;2023-02-07T00:12:41;16.95;;;6.55;;
73331;SDS011;61560;33.718;73.040;2023-02-07T00:15:07;12.52;;;6.60;;
73331;SDS011;61560;33.718;73.040;2023-02-07T00:17:34;17.70;;;7.20;;
73331;SDS011;61560;33.718;73.040;2023-02-07T00:20:00;14.48;;;6.97;;
73331;SDS011;61560;33.718;73.040;2023-02-07T00:22:27;17.42;;;7.75;;
73331;SDS011;61560;33.718;73.040;2023-02-07T00:24:54;13.82;;;7.22;;
73331;SDS011;61560;33.718;73.040;2023-02-07T00:27:21;15.05;;;6.93;;
73331;SDS011;61560;33.718;73.040;2023-02-07T00:29:47;17.48;;;6.38;;
73331;SDS011;61560;33.718;73.040;2023-02-07T00:32:14;13.75;;;7.22;;
73331;SDS011;61560;33.718;73.040;2023-02-07T00:34:40;11.43;;;6.97;;
73331;SDS011;61560;33.718;73.040;2023-02-07T00:37:07;18.83;;;7.18;;
73331;SDS011;61560;33.718;73.040;2023-02-07T00:39:34;17.45;;;8.00;;
73331;SDS011;61560;33.718;73.040;2023-02-07T00:42:03;13.88;;;7.30;;
73331;SDS011;61560;33.718;73.040;2023-02-07T00:44:29;13.77;;;6.55;;
73331;SDS011;61560;33.718;73.040;2023-02-07T00:46:57;16.40;;;7.03;;
73331;SDS011;61560;33.718;73.040;2023-02-07T00:49:24;14.73;;;6.75;;
73331;SDS011;61560;33.718;73.040;2023-02-07T00:51:51;18.50;;;6.80;;
73331;SDS011;61560;33.718;73.040;2023-02-07T00:54:18;15.20;;;6.05;;
73331;SDS011;61560;33.718;73.040;2023-02-07T00:56:45;16.30;;;6.53;;
73331;SDS011;61560;33.718;73.040;2023-02-07T00:59:11;14.50;;;6.57;;
73331;SDS011;61560;33.718;73.040;2023-02-07T01:01:38;18.25;;;6.88;;
73331;SDS011;61560;33.718;73.040;2023-02-07T01:04:05;18.85;;;6.28;;
73331;SDS011;61560;33.718;73.040;2023-02-07T01:06:32;16.08;;;5.60;;
73331;SDS011;61560;33.718;73.040;2023-02-07T01:09:02;13.13;;;5.75;;
73331;SDS011;61560;33.718;73.040;2023-02-07T01:11:30;13.80;;;5.78;;
73331;SDS011;61560;33.718;73.040;2023-02-07T01:13:58;10.80;;;5.18;;
73331;SDS011;61560;33.718;73.040;2023-02-07T01:16:30;9.93;;;5.22;;
73331;SDS011;61560;33.718;73.040;2023-02-07T01:19:02;14.27;;;5.28;;
73331;SDS011;61560;33.718;73.040;2023-02-07T01:21:31;12.23;;;5.40;;
73331;SDS011;61560;33.718;73.040;2023-02-07T01:23:57;11.50;;;4.47;;
73331;SDS011;61560;33.718;73.040;2023-02-07T01:26:24;20.90;;;6.63;;
73331;SDS011;61560;33.718;73.040;2023-02-07T01:28:52;11.75;;;6.63;;
73331;SDS011;61560;33.718;73.040;2023-02-07T01:31:19;10.77;;;5.47;;
73331;SDS011;61560;33.718;73.040;2023-02-07T01:33:47;12.32;;;5.20;;
73331;SDS011;61560;33.718;73.040;2023-02-07T01:36:19;12.93;;;5.68;;
73331;SDS011;61560;33.718;73.040;2023-02-07T01:38:45;11.93;;;5.82;;
73331;SDS011;61560;33.718;73.040;2023-02-07T01:41:12;14.60;;;5.88;;
73331;SDS011;61560;33.718;73.040;2023-02-07T01:46:29;14.35;;;6.20;;
73331;SDS011;61560;33.718;73.040;2023-02-07T01:49:00;13.13;;;5.05;;
73331;SDS011;61560;33.718;73.040;2023-02-07T01:51:30;9.40;;;4.88;;
73331;SDS011;61560;33.718;73.040;2023-02-07T01:53:59;12.05;;;4.22;;
73331;SDS011;61560;33.718;73.040;2023-02-07T01:56:29;17.52;;;4.70;;
73331;SDS011;61560;33.718;73.040;2023-02-07T01:58:59;7.13;;;4.35;;
73331;SDS011;61560;33.718;73.040;2023-02-07T02:01:28;13.05;;;4.63;;
73331;SDS011;61560;33.718;73.040;2023-02-07T02:03:55;7.93;;;4.40;;
73331;SDS011;61560;33.718;73.040;2023-02-07T02:06:22;8.32;;;3.88;;
73331;SDS011;61560;33.718;73.040;2023-02-07T02:08:56;11.25;;;3.85;;
73331;SDS011;61560;33.718;73.040;2023-02-07T02:11:41;8.73;;;4.65;;
73331;SDS011;61560;33.718;73.040;2023-02-07T02:17:20;9.18;;;3.88;;
73331;SDS011;61560;33.718;73.040;2023-02-07T02:20:14;8.52;;;4.05;;
73331;SDS011;61560;33.718;73.040;2023-02-07T02:34:21;12.95;;;6.65;;
73331;SDS011;61560;33.718;73.040;2023-02-07T02:37:07;11.20;;;4.70;;
73331;SDS011;61560;33.718;73.040;2023-02-07T02:39:40;13.32;;;5.32;;
73331;SDS011;61560;33.718;73.040;2023-02-07T02:42:15;18.48;;;6.93;;
73331;SDS011;61560;33.718;73.040;2023-02-07T02:45:07;12.50;;;6.90;;
73331;SDS011;61560;33.718;73.040;2023-02-07T02:47:37;19.08;;;7.78;;
73331;SDS011;61560;33.718;73.040;2023-02-07T02:50:11;17.65;;;8.07;;
73331;SDS011;61560;33.718;73.040;2023-02-07T02:52:42;28.88;;;8.38;;
73331;SDS011;61560;33.718;73.040;2023-02-07T02:55:09;24.10;;;8.95;;
73331;SDS011;61560;33.718;73.040;2023-02-07T03:03:07;27.35;;;11.57;;
73331;SDS011;61560;33.718;73.040;2023-02-07T03:08:40;30.65;;;11.00;;
73331;SDS011;61560;33.718;73.040;2023-02-07T03:11:27;30.63;;;11.80;;
73331;SDS011;61560;33.718;73.040;2023-02-07T03:16:49;24.02;;;10.32;;
73331;SDS011;61560;33.718;73.040;2023-02-07T03:19:42;23.25;;;11.02;;
73331;SDS011;61560;33.718;73.040;2023-02-07T03:22:16;22.27;;;10.30;;
73331;SDS011;61560;33.718;73.040;2023-02-07T03:24:56;25.25;;;11.02;;
73331;SDS011;61560;33.718;73.040;2023-02-07T03:27:28;23.80;;;10.43;;
73331;SDS011;61560;33.718;73.040;2023-02-07T03:29:57;29.63;;;12.63;;
73331;SDS011;61560;33.718;73.040;2023-02-07T03:32:31;30.75;;;11.75;;
73331;SDS011;61560;33.718;73.040;2023-02-07T03:35:08;30.73;;;11.75;;
73331;SDS011;61560;33.718;73.040;2023-02-07T03:37:41;25.80;;;11.90;;
73331;SDS011;61560;33.718;73.040;2023-02-07T03:40:27;24.67;;;10.88;;
73331;SDS011;61560;33.718;73.040;2023-02-07T03:45:35;24.30;;;10.13;;
73331;SDS011;61560;33.718;73.040;2023-02-07T03:48:03;34.05;;;15.05;;
73331;SDS011;61560;33.718;73.040;2023-02-07T03:50:31;32.85;;;12.95;;
73331;SDS011;61560;33.718;73.040;2023-02-07T03:52:57;24.70;;;10.23;;
73331;SDS011;61560;33.718;73.040;2023-02-07T03:55:24;23.35;;;9.75;;
73331;SDS011;61560;33.718;73.040;2023-02-07T03:57:50;28.77;;;10.50;;
73331;SDS011;61560;33.718;73.040;2023-02-07T04:00:17;25.92;;;11.13;;
73331;SDS011;61560;33.718;73.040;2023-02-07T04:02:44;23.23;;;9.65;;
73331;SDS011;61560;33.718;73.040;2023-02-07T04:05:11;24.38;;;8.82;;
73331;SDS011;61560;33.718;73.040;2023-02-07T04:07:37;22.92;;;8.70;;
73331;SDS011;61560;33.718;73.040;2023-02-07T04:10:04;16.33;;;8.40;;
73331;SDS011;61560;33.718;73.040;2023-02-07T04:12:31;23.20;;;8.95;;
73331;SDS011;61560;33.718;73.040;2023-02-07T04:14:58;29.27;;;10.23;;
73331;SDS011;61560;33.718;73.040;2023-02-07T04:17:26;31.83;;;9.85;;
73331;SDS011;61560;33.718;73.040;2023-02-07T04:19:52;21.15;;;10.38;;
73331;SDS011;61560;33.718;73.040;2023-02-07T04:22:19;19.30;;;10.40;;
73331;SDS011;61560;33.718;73.040;2023-02-07T04:24:46;28.60;;;10.52;;
73331;SDS011;61560;33.718;73.040;2023-02-07T04:27:15;22.38;;;10.00;;
73331;SDS011;61560;33.718;73.040;2023-02-07T04:29:42;25.55;;;10.98;;
73331;SDS011;61560;33.718;73.040;2023-02-07T04:32:09;21.20;;;9.50;;
73331;SDS011;61560;33.718;73.040;2023-02-07T04:34:35;22.10;;;10.35;;
73331;SDS011;61560;33.718;73.040;2023-02-07T04:37:02;30.33;;;9.95;;
73331;SDS011;61560;33.718;73.040;2023-02-07T04:39:28;44.55;;;10.90;;
73331;SDS011;61560;33.718;73.040;2023-02-07T04:41:55;34.30;;;10.05;;
73331;SDS011;61560;33.718;73.040;2023-02-07T04:44:22;26.58;;;9.32;;
73331;SDS011;61560;33.718;73.040;2023-02-07T04:46:51;26.27;;;10.07;;
73331;SDS011;61560;33.718;73.040;2023-02-07T04:49:18;26.35;;;10.43;;
73331;SDS011;61560;33.718;73.040;2023-02-07T04:51:45;14.90;;;7.60;;
73331;SDS011;61560;33.718;73.040;2023-02-07T04:54:12;13.43;;;5.95;;
73331;SDS011;61560;33.718;73.040;2023-02-07T04:56:38;15.52;;;5.30;;
73331;SDS011;61560;33.718;73.040;2023-02-07T04:59:05;10.68;;;3.67;;
73331;SDS011;61560;33.718;73.040;2023-02-07T05:01:31;19.15;;;8.07;;
73331;SDS011;61560;33.718;73.040;2023-02-07T05:03:58;33.83;;;10.68;;
73331;SDS011;61560;33.718;73.040;2023-02-07T05:06:27;23.60;;;10.82;;
73331;SDS011;61560;33.718;73.040;2023-02-07T05:08:56;28.20;;;12.25;;
73331;SDS011;61560;33.718;73.040;2023-02-07T05:11:23;31.00;;;13.52;;
73331;SDS011;61560;33.718;73.040;2023-02-07T05:13:51;30.20;;;13.45;;
73331;SDS011;61560;33.718;73.040;2023-02-07T05:16:17;31.15;;;13.95;;
73331;SDS011;61560;33.718;73.040;2023-02-07T05:18:44;34.67;;;14.70;;
73331;SDS011;61560;33.718;73.040;2023-02-07T05:21:10;30.05;;;14.80;;
73331;SDS011;61560;33.718;73.040;2023-02-07T05:23:39;32.40;;;14.27;;
73331;SDS011;61560;33.718;73.040;2023-02-07T05:26:05;23.92;;;14.32;;
73331;SDS011;61560;33.718;73.040;2023-02-07T05:28:32;29.55;;;15.00;;
73331;SDS011;61560;33.718;73.040;2023-02-07T05:30:58;32.28;;;15.20;;
73331;SDS011;61560;33.718;73.040;2023-02-07T05:33:25;35.78;;;15.65;;
73331;SDS011;61560;33.718;73.040;2023-02-07T05:35:54;27.48;;;15.93;;
73331;SDS011;61560;33.718;73.040;2023-02-07T05:38:20;35.20;;;16.13;;
73331;SDS011;61560;33.718;73.040;2023-02-07T05:40:47;29.52;;;14.77;;
73331;SDS011;61560;33.718;73.040;2023-02-07T05:43:14;42.05;;;15.27;;
73331;SDS011;61560;33.718;73.040;2023-02-07T05:45:41;31.23;;;13.63;;
73331;SDS011;61560;33.718;73.040;2023-02-07T05:48:08;30.80;;;14.15;;
73331;SDS011;61560;33.718;73.040;2023-02-07T05:50:34;30.95;;;13.82;;
73331;SDS011;61560;33.718;73.040;2023-02-07T05:53:05;29.23;;;14.18;;
73331;SDS011;61560;33.718;73.040;2023-02-07T05:55:35;30.30;;;13.10;;
73331;SDS011;61560;33.718;73.040;2023-02-07T05:58:01;28.30;;;13.00;;
73331;SDS011;61560;33.718;73.040;2023-02-07T06:00:28;29.80;;;13.98;;
73331;SDS011;61560;33.718;73.040;2023-02-07T06:02:55;27.80;;;13.77;;
73331;SDS011;61560;33.718;73.040;2023-02-07T06:05:21;32.33;;;12.50;;
73331;SDS011;61560;33.718;73.040;2023-02-07T06:07:49;29.48;;;13.32;;
73331;SDS011;61560;33.718;73.040;2023-02-07T06:10:17;31.45;;;13.27;;
73331;SDS011;61560;33.718;73.040;2023-02-07T06:12:43;30.67;;;12.48;;
73331;SDS011;61560;33.718;73.040;2023-02-07T06:15:10;36.65;;;13.20;;
73331;SDS011;61560;33.718;73.040;2023-02-07T06:17:37;30.33;;;13.23;;
73331;SDS011;61560;33.718;73.040;2023-02-07T06:20:04;27.75;;;11.57;;
73331;SDS011;61560;33.718;73.040;2023-02-07T06:22:31;27.83;;;11.65;;
73331;SDS011;61560;33.718;73.040;2023-02-07T06:24:58;23.65;;;11.98;;
73331;SDS011;61560;33.718;73.040;2023-02-07T06:27:25;21.13;;;11.55;;
73331;SDS011;61560;33.718;73.040;2023-02-07T06:29:51;29.35;;;13.45;;
73331;SDS011;61560;33.718;73.040;2023-02-07T06:32:18;30.45;;;12.68;;
73331;SDS011;61560;33.718;73.040;2023-02-07T06:34:45;40.22;;;16.40;;
73331;SDS011;61560;33.718;73.040;2023-02-07T06:37:11;48.38;;;18.63;;
73331;SDS011;61560;33.718;73.040;2023-02-07T06:39:38;40.55;;;18.92;;
73331;SDS011;61560;33.718;73.040;2023-02-07T06:42:04;43.20;;;18.67;;
73331;SDS011;61560;33.718;73.040;2023-02-07T06:44:31;37.85;;;18.35;;
73331;SDS011;61560;33.718;73.040;2023-02-07T06:46:57;42.47;;;16.52;;
73331;SDS011;61560;33.718;73.040;2023-02-07T06:49:24;46.47;;;17.42;;
73331;SDS011;61560;33.718;73.040;2023-02-07T06:51:51;33.85;;;16.00;;
73331;SDS011;61560;33.718;73.040;2023-02-07T06:54:17;39.42;;;16.60;;
73331;SDS011;61560;33.718;73.040;2023-02-07T06:56:44;33.67;;;16.25;;
73331;SDS011;61560;33.718;73.040;2023-02-07T06:59:10;36.38;;;16.95;;
73331;SDS011;61560;33.718;73.040;2023-02-07T07:01:37;43.78;;;18.70;;
73331;SDS011;61560;33.718;73.040;2023-02-07T07:04:04;40.03;;;17.85;;
73331;SDS011;61560;33.718;73.040;2023-02-07T07:06:31;34.33;;;17.13;;
73331;SDS011;61560;33.718;73.040;2023-02-07T07:08:57;30.85;;;15.27;;
73331;SDS011;61560;33.718;73.040;2023-02-07T07:11:24;30.02;;;16.23;;
73331;SDS011;61560;33.718;73.040;2023-02-07T07:13:50;42.03;;;17.02;;
73331;SDS011;61560;33.718;73.040;2023-02-07T07:16:17;21.83;;;9.70;;
73331;SDS011;61560;33.718;73.040;2023-02-07T07:18:47;23.85;;;8.48;;
73331;SDS011;61560;33.718;73.040;2023-02-07T07:21:14;17.55;;;7.93;;
73331;SDS011;61560;33.718;73.040;2023-02-07T07:23:41;17.35;;;6.70;;
73331;SDS011;61560;33.718;73.040;2023-02-07T07:26:07;13.60;;;6.03;;
73331;SDS011;61560;33.718;73.040;2023-02-07T07:28:35;8.63;;;5.35;;
73331;SDS011;61560;33.718;73.040;2023-02-07T07:31:05;8.40;;;4.63;;
73331;SDS011;61560;33.718;73.040;2023-02-07T07:33:33;10.10;;;4.70;;
73331;SDS011;61560;33.718;73.040;2023-02-07T07:36:07;11.40;;;4.60;;
73331;SDS011;61560;33.718;73.040;2023-02-07T07:38:34;12.38;;;3.80;;
73331;SDS011;61560;33.718;73.040;2023-02-07T07:41:01;7.93;;;3.80;;
73331;SDS011;61560;33.718;73.040;2023-02-07T07:43:27;6.88;;;3.80;;
73331;SDS011;61560;33.718;73.040;2023-02-07T07:45:55;9.40;;;4.60;;
73331;SDS011;61560;33.718;73.040;2023-02-07T07:48:24;5.70;;;3.67;;
73331;SDS011;61560;33.718;73.040;2023-02-07T07:50:54;7.47;;;3.38;;
73331;SDS011;61560;33.718;73.040;2023-02-07T07:53:21;7.90;;;3.65;;
73331;SDS011;61560;33.718;73.040;2023-02-07T07:55:57;12.15;;;3.83;;
73331;SDS011;61560;33.718;73.040;2023-02-07T07:58:24;6.88;;;4.03;;
73331;SDS011;61560;33.718;73.040;2023-02-07T09:02:47;9.85;;;4.80;;
73331;SDS011;61560;33.718;73.040;2023-02-07T09:05:16;15.93;;;4.68;;
73331;SDS011;61560;33.718;73.040;2023-02-07T09:07:46;12.10;;;4.88;;
73331;SDS011;61560;33.718;73.040;2023-02-07T09:10:14;12.30;;;5.95;;
73331;SDS011;61560;33.718;73.040;2023-02-07T09:12:40;13.85;;;5.38;;
73331;SDS011;61560;33.718;73.040;2023-02-07T09:15:09;10.77;;;5.22;;
73331;SDS011;61560;33.718;73.040;2023-02-07T09:17:36;9.50;;;4.65;;
73331;SDS011;61560;33.718;73.040;2023-02-07T09:20:02;8.98;;;4.82;;
73331;SDS011;61560;33.718;73.040;2023-02-07T09:22:29;12.25;;;5.55;;
73331;SDS011;61560;33.718;73.040;2023-02-07T09:25:00;11.73;;;5.55;;
73331;SDS011;61560;33.718;73.040;2023-02-07T09:27:26;14.98;;;5.22;;
73331;SDS011;61560;33.718;73.040;2023-02-07T09:29:54;12.05;;;5.60;;
73331;SDS011;61560;33.718;73.040;2023-02-07T09:32:20;13.90;;;6.10;;
73331;SDS011;61560;33.718;73.040;2023-02-07T09:34:51;11.02;;;5.50;;
73331;SDS011;61560;33.718;73.040;2023-02-07T09:37:19;11.15;;;5.60;;
73331;SDS011;61560;33.718;73.040;2023-02-07T09:39:45;12.93;;;6.07;;
73331;SDS011;61560;33.718;73.040;2023-02-07T09:45:10;15.30;;;7.22;;
73331;SDS011;61560;33.718;73.040;2023-02-07T09:47:41;13.80;;;6.13;;
73331;SDS011;61560;33.718;73.040;2023-02-07T09:50:24;14.43;;;6.22;;
73331;SDS011;61560;33.718;73.040;2023-02-07T09:53:18;16.85;;;6.03;;
73331;SDS011;61560;33.718;73.040;2023-02-07T09:55:48;10.13;;;5.75;;
73331;SDS011;61560;33.718;73.040;2023-02-07T09:58:20;13.02;;;5.47;;
73331;SDS011;61560;33.718;73.040;2023-02-07T10:01:15;11.13;;;5.32;;
73331;SDS011;61560;33.718;73.040;2023-02-07T10:03:50;11.20;;;6.03;;
73331;SDS011;61560;33.718;73.040;2023-02-07T10:06:31;12.77;;;4.93;;
73331;SDS011;61560;33.718;73.040;2023-02-07T10:08:59;10.68;;;5.32;;
73331;SDS011;61560;33.718;73.040;2023-02-07T10:22:23;14.00;;;6.85;;
73331;SDS011;61560;33.718;73.040;2023-02-07T10:25:02;12.05;;;6.20;;
73331;SDS011;61560;33.718;73.040;2023-02-07T10:30:34;12.95;;;6.13;;
73331;SDS011;61560;33.718;73.040;2023-02-07T10:33:09;14.50;;;6.13;;
73331;SDS011;61560;33.718;73.040;2023-02-07T10:35:40;16.33;;;6.65;;
73331;SDS011;61560;33.718;73.040;2023-02-07T10:43:58;12.25;;;5.60;;
73331;SDS011;61560;33.718;73.040;2023-02-07T10:46:24;22.05;;;7.00;;
73331;SDS011;61560;33.718;73.040;2023-02-07T10:48:52;11.70;;;6.05;;
73331;SDS011;61560;33.718;73.040;2023-02-07T10:51:30;13.25;;;6.35;;
73331;SDS011;61560;33.718;73.040;2023-02-07T10:54:00;15.27;;;6.05;;
73331;SDS011;61560;33.718;73.040;2023-02-07T10:56:29;13.20;;;6.18;;
73331;SDS011;61560;33.718;73.040;2023-02-07T10:58:59;13.25;;;7.03;;
73331;SDS011;61560;33.718;73.040;2023-02-07T11:01:26;18.92;;;7.00;;
73331;SDS011;61560;33.718;73.040;2023-02-07T11:03:56;13.70;;;6.68;;
73331;SDS011;61560;33.718;73.040;2023-02-07T11:06:25;11.80;;;7.07;;
73331;SDS011;61560;33.718;73.040;2023-02-07T11:11:37;13.13;;;6.32;;
73331;SDS011;61560;33.718;73.040;2023-02-07T11:14:06;15.77;;;6.70;;
73331;SDS011;61560;33.718;73.040;2023-02-07T11:16:41;16.33;;;6.30;;
73331;SDS011;61560;33.718;73.040;2023-02-07T11:19:17;13.25;;;6.63;;
73331;SDS011;61560;33.718;73.040;2023-02-07T11:21:48;16.02;;;7.13;;
73331;SDS011;61560;33.718;73.040;2023-02-07T11:24:23;12.05;;;5.97;;
73331;SDS011;61560;33.718;73.040;2023-02-07T11:29:31;12.35;;;6.22;;
73331;SDS011;61560;33.718;73.040;2023-02-07T11:32:02;13.77;;;6.80;;
73331;SDS011;61560;33.718;73.040;2023-02-07T11:40:23;12.02;;;6.15;;
73331;SDS011;61560;33.718;73.040;2023-02-07T11:43:10;12.93;;;5.60;;
73331;SDS011;61560;33.718;73.040;2023-02-07T11:45:51;12.05;;;5.93;;
73331;SDS011;61560;33.718;73.040;2023-02-07T11:48:28;12.25;;;5.70;;
73331;SDS011;61560;33.718;73.040;2023-02-07T11:51:00;11.27;;;5.68;;
73331;SDS011;61560;33.718;73.040;2023-02-07T11:53:44;13.55;;;5.90;;
73331;SDS011;61560;33.718;73.040;2023-02-07T11:56:26;14.50;;;5.70;;
73331;SDS011;61560;33.718;73.040;2023-02-07T11:58:57;11.18;;;5.13;;
73331;SDS011;61560;33.718;73.040;2023-02-07T12:01:29;9.30;;;4.63;;
73331;SDS011;61560;33.718;73.040;2023-02-07T12:04:02;12.63;;;5.90;;
73331;SDS011;61560;33.718;73.040;2023-02-07T12:06:53;11.43;;;5.38;;
73331;SDS011;61560;33.718;73.040;2023-02-07T12:12:50;12.05;;;5.60;;
73331;SDS011;61560;33.718;73.040;2023-02-07T12:15:34;15.52;;;6.28;;
73331;SDS011;61560;33.718;73.040;2023-02-07T12:20:32;12.25;;;6.80;;
73331;SDS011;61560;33.718;73.040;2023-02-07T12:23:07;12.57;;;6.07;;
73331;SDS011;61560;33.718;73.040;2023-02-07T12:25:38;13.20;;;6.22;;
73331;SDS011;61560;33.718;73.040;2023-02-07T12:28:13;11.23;;;5.22;;
73331;SDS011;61560;33.718;73.040;2023-02-07T12:31:24;13.23;;;6.10;;
73331;SDS011;61560;33.718;73.040;2023-02-07T12:33:59;9.95;;;5.30;;
73331;SDS011;61560;33.718;73.040;2023-02-07T12:36:51;13.93;;;6.10;;
73331;SDS011;61560;33.718;73.040;2023-02-07T12:42:23;13.35;;;6.57;;
73331;SDS011;61560;33.718;73.040;2023-02-07T12:45:03;14.48;;;5.63;;
73331;SDS011;61560;33.718;73.040;2023-02-07T12:50:27;15.02;;;6.28;;
73331;SDS011;61560;33.718;73.040;2023-02-07T12:58:53;14.23;;;6.93;;
73331;SDS011;61560;33.718;73.040;2023-02-07T14:04:55;16.13;;;7.70;;
73331;SDS011;61560;33.718;73.040;2023-02-07T14:07:24;14.07;;;6.40;;
73331;SDS011;61560;33.718;73.040;2023-02-07T14:09:55;16.43;;;6.90;;
73331;SDS011;61560;33.718;73.040;2023-02-07T14:12:29;14.75;;;6.90;;
73331;SDS011;61560;33.718;73.040;2023-02-07T14:20:49;19.42;;;8.05;;
73331;SDS011;61560;33.718;73.040;2023-02-07T14:23:31;17.60;;;6.78;;
73331;SDS011;61560;33.718;73.040;2023-02-07T14:31:56;13.10;;;6.40;;
73331;SDS011;61560;33.718;73.040;2023-02-07T14:34:29;16.25;;;6.90;;
73331;SDS011;61560;33.718;73.040;2023-02-07T14:36:57;15.13;;;7.67;;
73331;SDS011;61560;33.718;73.040;2023-02-07T14:39:28;14.68;;;7.00;;
73331;SDS011;61560;33.718;73.040;2023-02-07T14:42:09;13.85;;;6.60;;
73331;SDS011;61560;33.718;73.040;2023-02-07T14:44:42;20.65;;;6.78;;
73331;SDS011;61560;33.718;73.040;2023-02-07T14:47:30;13.90;;;6.22;;
73331;SDS011;61560;33.718;73.040;2023-02-07T14:50:01;9.30;;;5.15;;
73331;SDS011;61560;33.718;73.040;2023-02-07T14:52:32;14.52;;;5.50;;
73331;SDS011;61560;33.718;73.040;2023-02-07T14:55:12;10.25;;;5.82;;
73331;SDS011;61560;33.718;73.040;2023-02-07T14:58:03;13.82;;;5.82;;
73331;SDS011;61560;33.718;73.040;2023-02-07T15:00:37;12.40;;;5.40;;
73331;SDS011;61560;33.718;73.040;2023-02-07T15:03:12;8.80;;;4.25;;
73331;SDS011;61560;33.718;73.040;2023-02-07T15:05:52;9.80;;;5.13;;
73331;SDS011;61560;33.718;73.040;2023-02-07T15:08:25;15.20;;;6.78;;
73331;SDS011;61560;33.718;73.040;2023-02-07T15:11:01;15.25;;;5.65;;
73331;SDS011;61560;33.718;73.040;2023-02-07T15:13:35;11.75;;;6.13;;
73331;SDS011;61560;33.718;73.040;2023-02-07T15:16:19;12.43;;;5.30;;
73331;SDS011;61560;33.718;73.040;2023-02-07T15:23:26;11.95;;;5.90;;
73331;SDS011;61560;33.718;73.040;2023-02-07T15:26:19;10.27;;;5.57;;
73331;SDS011;61560;33.718;73.040;2023-02-07T15:29:25;13.80;;;5.53;;
73331;SDS011;61560;33.718;73.040;2023-02-07T15:34:48;11.75;;;6.10;;
73331;SDS011;61560;33.718;73.040;2023-02-07T15:37:17;12.52;;;5.90;;
73331;SDS011;61560;33.718;73.040;2023-02-07T15:39:46;13.90;;;6.03;;
73331;SDS011;61560;33.718;73.040;2023-02-07T15:42:14;14.57;;;5.88;;
73331;SDS011;61560;33.718;73.040;2023-02-07T15:44:53;15.52;;;6.45;;
73331;SDS011;61560;33.718;73.040;2023-02-07T15:50:20;16.10;;;6.85;;
73331;SDS011;61560;33.718;73.040;2023-02-07T15:52:52;17.17;;;6.38;;
73331;SDS011;61560;33.718;73.040;2023-02-07T15:55:31;20.30;;;6.72;;
73331;SDS011;61560;33.718;73.040;2023-02-07T15:58:16;19.63;;;6.10;;
73331;SDS011;61560;33.718;73.040;2023-02-07T16:00:47;11.93;;;6.35;;
73331;SDS011;61560;33.718;73.040;2023-02-07T16:03:19;13.30;;;6.88;;
73331;SDS011;61560;33.718;73.040;2023-02-07T16:05:47;16.88;;;6.97;;
73331;SDS011;61560;33.718;73.040;2023-02-07T16:08:30;17.67;;;7.72;;
73331;SDS011;61560;33.718;73.040;2023-02-07T16:16:25;17.30;;;7.05;;
73331;SDS011;61560;33.718;73.040;2023-02-07T16:19:07;21.27;;;8.40;;
73331;SDS011;61560;33.718;73.040;2023-02-07T16:21:43;27.15;;;9.02;;
73331;SDS011;61560;33.718;73.040;2023-02-07T16:24:16;29.13;;;11.18;;
73331;SDS011;61560;33.718;73.040;2023-02-07T16:26:46;25.42;;;10.15;;
73331;SDS011;61560;33.718;73.040;2023-02-07T16:29:18;32.08;;;11.13;;
73331;SDS011;61560;33.718;73.040;2023-02-07T16:31:46;25.02;;;10.88;;
73331;SDS011;61560;33.718;73.040;2023-02-07T16:34:13;26.05;;;10.73;;
73331;SDS011;61560;33.718;73.040;2023-02-07T16:36:43;22.20;;;10.75;;
73331;SDS011;61560;33.718;73.040;2023-02-07T16:39:12;32.90;;;11.73;;
73331;SDS011;61560;33.718;73.040;2023-02-07T16:41:39;29.15;;;11.27;;
73331;SDS011;61560;33.718;73.040;2023-02-07T16:44:13;29.38;;;12.27;;
73331;SDS011;61560;33.718;73.040;2023-02-07T16:46:43;43.45;;;13.80;;
73331;SDS011;61560;33.718;73.040;2023-02-07T16:49:16;31.42;;;12.65;;
73331;SDS011;61560;33.718;73.040;2023-02-07T16:51:45;45.58;;;14.60;;
73331;SDS011;61560;33.718;73.040;2023-02-07T16:54:13;29.02;;;12.40;;
73331;SDS011;61560;33.718;73.040;2023-02-07T16:56:40;26.48;;;12.10;;
73331;SDS011;61560;33.718;73.040;2023-02-07T16:59:18;27.90;;;12.57;;
73331;SDS011;61560;33.718;73.040;2023-02-07T17:01:46;35.65;;;14.38;;
73331;SDS011;61560;33.718;73.040;2023-02-07T17:04:15;39.97;;;15.52;;
73331;SDS011;61560;33.718;73.040;2023-02-07T17:06:42;40.72;;;14.02;;
73331;SDS011;61560;33.718;73.040;2023-02-07T17:09:16;31.25;;;13.02;;
73331;SDS011;61560;33.718;73.040;2023-02-07T17:11:51;28.33;;;13.43;;
73331;SDS011;61560;33.718;73.040;2023-02-07T17:14:18;31.05;;;12.27;;
73331;SDS011;61560;33.718;73.040;2023-02-07T17:16:45;29.73;;;12.15;;
73331;SDS011;61560;33.718;73.040;2023-02-07T17:19:13;32.92;;;12.30;;
73331;SDS011;61560;33.718;73.040;2023-02-07T17:21:43;28.17;;;13.05;;
73331;SDS011;61560;33.718;73.040;2023-02-07T17:24:10;25.42;;;11.10;;
73331;SDS011;61560;33.718;73.040;2023-02-07T17:26:38;30.38;;;11.75;;
73331;SDS011;61560;33.718;73.040;2023-02-07T17:29:09;27.30;;;11.32;;
73331;SDS011;61560;33.718;73.040;2023-02-07T17:31:38;24.77;;;9.93;;
73331;SDS011;61560;33.718;73.040;2023-02-07T17:34:06;18.85;;;9.45;;
73331;SDS011;61560;33.718;73.040;2023-02-07T17:36:33;24.00;;;9.23;;
73331;SDS011;61560;33.718;73.040;2023-02-07T17:39:00;20.95;;;8.80;;
73331;SDS011;61560;33.718;73.040;2023-02-07T17:41:27;21.88;;;10.32;;
73331;SDS011;61560;33.718;73.040;2023-02-07T17:43:55;17.52;;;9.18;;
73331;SDS011;61560;33.718;73.040;2023-02-07T17:46:22;18.90;;;8.77;;
73331;SDS011;61560;33.718;73.040;2023-02-07T17:48:51;18.10;;;8.00;;
73331;SDS011;61560;33.718;73.040;2023-02-07T17:51:21;20.38;;;8.40;;
73331;SDS011;61560;33.718;73.040;2023-02-07T17:53:49;23.88;;;8.95;;
73331;SDS011;61560;33.718;73.040;2023-02-07T17:58:49;15.82;;;7.88;;
73331;SDS011;61560;33.718;73.040;2023-02-07T18:01:16;26.30;;;8.80;;
73331;SDS011;61560;33.718;73.040;2023-02-07T18:03:46;29.58;;;9.00;;
73331;SDS011;61560;33.718;73.040;2023-02-07T18:06:18;25.13;;;7.63;;
73331;SDS011;61560;33.718;73.040;2023-02-07T18:08:47;20.23;;;8.02;;
73331;SDS011;61560;33.718;73.040;2023-02-07T18:11:13;26.13;;;8.82;;
73331;SDS011;61560;33.718;73.040;2023-02-07T18:13:49;17.00;;;8.02;;
73331;SDS011;61560;33.718;73.040;2023-02-07T18:16:49;20.77;;;8.32;;
73331;SDS011;61560;33.718;73.040;2023-02-07T18:19:16;16.15;;;8.55;;
73331;SDS011;61560;33.718;73.040;2023-02-07T18:21:43;17.23;;;8.95;;
73331;SDS011;61560;33.718;73.040;2023-02-07T18:24:10;19.60;;;7.50;;
73331;SDS011;61560;33.718;73.040;2023-02-07T18:26:36;15.48;;;8.18;;
73331;SDS011;61560;33.718;73.040;2023-02-07T18:29:02;22.15;;;8.85;;
73331;SDS011;61560;33.718;73.040;2023-02-07T18:31:29;18.75;;;8.50;;
73331;SDS011;61560;33.718;73.040;2023-02-07T18:33:56;21.98;;;8.45;;
73331;SDS011;61560;33.718;73.040;2023-02-07T18:36:23;19.30;;;7.68;;